Somersville, Connecticut
Current Conditions -  °F | °C
As of 11:18 PM on Tuesday 27 Jan 2015 (Local Time) from KBDL Reporting Station
Light Snow Light Snow  
Wind Chill: -1°   Ceiling: 2400
Heat Index: 13°   Visibility: 3mi
Dew Point:   Wind: 12mph
Humidity: 74%   Direction: 330°NNW
Pressure: 29.77"   Gusts: NA
Location:  41.98°N, 72.49°W
Report Text: KBDL 280418Z 33010KT 3SM -SN OVC024 M11/M14 A2977 RMK AO2 P0000 T11061144
Loading
Personal Weather Stations






























Interactive Weather Map New forecast layout! Learn more

10-Day Weather Forecast

Advertisements
Track Severe Weather on mobile